Agate Bay, California
Current Conditions -  °F | °C
As of 9:55 AM on Friday 31 Oct 2014 (Local Time) from KTRK Reporting Station
Scattered Clouds Scattered Clouds  
Wind Chill: 54°   Ceiling: Unl
Heat Index: 54°   Visibility: 10mi
Dew Point: 30°   Wind: 20mph
Humidity: 41%   Direction: 220°SW
Pressure: 29.92"   Gusts: 29mph
Location:  39.2392°N, 120.102°W
Report Text: KTRK 311655Z 22017G25KT 10SM SCT050 SCT150 12/M01 A2992 RMK NOSPECI
Loading
Personal Weather Stations






























Interactive Weather Map
Tropical Storm Tracking
New forecast layout! Learn more

10-Day Weather Forecast

Advertisements
Track Severe Weather on mobile